EmailTwitter


Observations de surface / Royaume-Uni / EGLL (03772)

Régions: Québec | Canada | États-Unis | Europe | France | UK | Elsewhere
Station
Affichage
Infos & localisation pour EGLL (03772) | Aide pour décoder les METARs

Observations prises le 2017-03-24 à 11H50 UTC à LONDON/HEATHROW, UK (EGLL)

Etat du ciel: couvert.

Température: 10.0 Celsius

Point de rosée: 6.0 Celsius

Humidité relative: 76%

Facteur vent: 8.

Vents: Est-nord-est à 19 km/h ou 10 noeuds.

Pression au niveau moyen de la mer: 102.90 kilopascals.

Visibilité horizontale: 3.73 milles terrestres ou 5.97 kilomètres.

Hauteur du plafond: 488 mètres ( 1600 pieds ).

Observation METAR:

EGLL 241150Z AUTO 07010KT 6000 OVC016 10/06 Q1029 NOSIG=